sensor_id;sensor_type;location;lat;lon;timestamp;temperature;humidity
9875;DHT22;4976;46.786;7.632;2023-06-26T04:01:37;17.10;40.60
9875;DHT22;4976;46.786;7.632;2023-06-26T04:04:04;17.10;1.00
9875;DHT22;4976;46.786;7.632;2023-06-26T04:06:31;17.10;1.00
9875;DHT22;4976;46.786;7.632;2023-06-26T04:08:58;16.90;99.90
9875;DHT22;4976;46.786;7.632;2023-06-26T04:11:26;16.80;99.90
9875;DHT22;4976;46.786;7.632;2023-06-26T04:13:53;16.80;99.90
9875;DHT22;4976;46.786;7.632;2023-06-26T04:16:20;16.80;99.90
9875;DHT22;4976;46.786;7.632;2023-06-26T04:18:52;17.00;1.00
9875;DHT22;4976;46.786;7.632;2023-06-26T04:21:19;17.20;99.90
9875;DHT22;4976;46.786;7.632;2023-06-26T04:23:46;17.20;99.90
9875;DHT22;4976;46.786;7.632;2023-06-26T04:26:13;17.00;99.90
9875;DHT22;4976;46.786;7.632;2023-06-26T04:28:40;17.10;1.00
9875;DHT22;4976;46.786;7.632;2023-06-26T04:31:07;17.00;1.00
9875;DHT22;4976;46.786;7.632;2023-06-26T04:33:35;16.90;1.00
9875;DHT22;4976;46.786;7.632;2023-06-26T04:36:04;16.90;1.00
9875;DHT22;4976;46.786;7.632;2023-06-26T04:38:32;16.90;55.90
9875;DHT22;4976;46.786;7.632;2023-06-26T04:40:59;16.80;99.90
9875;DHT22;4976;46.786;7.632;2023-06-26T04:43:26;16.90;99.90
9875;DHT22;4976;46.786;7.632;2023-06-26T04:45:53;17.20;99.90
9875;DHT22;4976;46.786;7.632;2023-06-26T04:48:20;17.50;99.90
9875;DHT22;4976;46.786;7.632;2023-06-26T04:50:47;17.60;74.20
9875;DHT22;4976;46.786;7.632;2023-06-26T04:53:21;17.70;99.90
9875;DHT22;4976;46.786;7.632;2023-06-26T04:55:49;17.80;99.90
9875;DHT22;4976;46.786;7.632;2023-06-26T04:58:18;18.00;1.00
9875;DHT22;4976;46.786;7.632;2023-06-26T05:00:46;18.00;1.00
9875;DHT22;4976;46.786;7.632;2023-06-26T05:03:14;18.10;1.00
9875;DHT22;4976;46.786;7.632;2023-06-26T05:05:42;18.10;1.00
9875;DHT22;4976;46.786;7.632;2023-06-26T05:08:16;18.30;99.90
9875;DHT22;4976;46.786;7.632;2023-06-26T05:10:45;18.30;1.00
9875;DHT22;4976;46.786;7.632;2023-06-26T05:13:12;18.50;99.90
9875;DHT22;4976;46.786;7.632;2023-06-26T05:15:43;18.70;99.90
9875;DHT22;4976;46.786;7.632;2023-06-26T05:18:10;18.80;45.60
9875;DHT22;4976;46.786;7.632;2023-06-26T05:20:37;19.00;1.00
9875;DHT22;4976;46.786;7.632;2023-06-26T05:23:05;19.10;99.90
9875;DHT22;4976;46.786;7.632;2023-06-26T05:25:32;19.10;99.90
9875;DHT22;4976;46.786;7.632;2023-06-26T05:28:05;19.30;99.90
9875;DHT22;4976;46.786;7.632;2023-06-26T05:30:34;19.50;1.00
9875;DHT22;4976;46.786;7.632;2023-06-26T05:33:02;19.50;1.00
9875;DHT22;4976;46.786;7.632;2023-06-26T05:35:31;19.70;1.00
9875;DHT22;4976;46.786;7.632;2023-06-26T05:37:59;19.80;99.90
9875;DHT22;4976;46.786;7.632;2023-06-26T05:40:27;20.00;99.90
9875;DHT22;4976;46.786;7.632;2023-06-26T05:42:54;20.00;99.90
9875;DHT22;4976;46.786;7.632;2023-06-26T05:45:23;19.80;99.90
9875;DHT22;4976;46.786;7.632;2023-06-26T05:47:52;20.00;99.90
9875;DHT22;4976;46.786;7.632;2023-06-26T05:50:20;20.30;99.90
9875;DHT22;4976;46.786;7.632;2023-06-26T05:52:47;20.30;99.90
9875;DHT22;4976;46.786;7.632;2023-06-26T05:55:15;20.50;1.00
9875;DHT22;4976;46.786;7.632;2023-06-26T05:57:42;20.90;99.90
9875;DHT22;4976;46.786;7.632;2023-06-26T06:00:10;21.00;35.50
9875;DHT22;4976;46.786;7.632;2023-06-26T06:02:40;21.10;1.00
9875;DHT22;4976;46.786;7.632;2023-06-26T06:05:08;21.20;1.00
9875;DHT22;4976;46.786;7.632;2023-06-26T06:07:35;21.40;1.00
9875;DHT22;4976;46.786;7.632;2023-06-26T06:10:03;21.50;1.00
9875;DHT22;4976;46.786;7.632;2023-06-26T06:12:30;21.70;1.00
9875;DHT22;4976;46.786;7.632;2023-06-26T06:14:57;21.90;1.00
9875;DHT22;4976;46.786;7.632;2023-06-26T06:17:24;21.90;1.00
9875;DHT22;4976;46.786;7.632;2023-06-26T06:19:53;22.00;1.00
9875;DHT22;4976;46.786;7.632;2023-06-26T06:22:19;22.20;1.00
9875;DHT22;4976;46.786;7.632;2023-06-26T06:24:48;22.30;1.00
9875;DHT22;4976;46.786;7.632;2023-06-26T06:27:15;22.10;1.00
9875;DHT22;4976;46.786;7.632;2023-06-26T06:29:42;22.20;1.00
9875;DHT22;4976;46.786;7.632;2023-06-26T06:32:09;22.20;1.00
9875;DHT22;4976;46.786;7.632;2023-06-26T06:34:36;22.30;1.00
9875;DHT22;4976;46.786;7.632;2023-06-26T06:37:04;22.30;1.00
9875;DHT22;4976;46.786;7.632;2023-06-26T06:39:31;22.40;1.00
9875;DHT22;4976;46.786;7.632;2023-06-26T06:41:58;22.40;1.00
9875;DHT22;4976;46.786;7.632;2023-06-26T06:44:25;22.60;1.00
9875;DHT22;4976;46.786;7.632;2023-06-26T06:46:52;22.80;1.00
9875;DHT22;4976;46.786;7.632;2023-06-26T06:49:20;23.00;1.00
9875;DHT22;4976;46.786;7.632;2023-06-26T06:51:47;22.90;1.00
9875;DHT22;4976;46.786;7.632;2023-06-26T06:54:16;23.10;1.00
9875;DHT22;4976;46.786;7.632;2023-06-26T06:56:43;23.30;1.00
9875;DHT22;4976;46.786;7.632;2023-06-26T06:59:10;23.30;1.00
9875;DHT22;4976;46.786;7.632;2023-06-26T07:01:39;23.50;1.00
9875;DHT22;4976;46.786;7.632;2023-06-26T07:04:06;23.60;1.00
9875;DHT22;4976;46.786;7.632;2023-06-26T07:06:33;23.80;1.00
9875;DHT22;4976;46.786;7.632;2023-06-26T07:09:00;23.70;1.00
9875;DHT22;4976;46.786;7.632;2023-06-26T07:11:29;23.90;1.00
9875;DHT22;4976;46.786;7.632;2023-06-26T07:13:56;24.00;99.90
9875;DHT22;4976;46.786;7.632;2023-06-26T07:16:24;23.90;99.90
9875;DHT22;4976;46.786;7.632;2023-06-26T07:18:51;24.10;99.90
9875;DHT22;4976;46.786;7.632;2023-06-26T07:21:18;24.20;99.90
9875;DHT22;4976;46.786;7.632;2023-06-26T07:23:45;24.10;99.90
9875;DHT22;4976;46.786;7.632;2023-06-26T07:26:14;24.10;99.90
9875;DHT22;4976;46.786;7.632;2023-06-26T07:28:42;24.30;99.90
9875;DHT22;4976;46.786;7.632;2023-06-26T07:31:09;24.50;99.90
9875;DHT22;4976;46.786;7.632;2023-06-26T07:33:36;24.60;99.90
9875;DHT22;4976;46.786;7.632;2023-06-26T07:36:04;24.90;99.90
9875;DHT22;4976;46.786;7.632;2023-06-26T07:38:31;25.10;99.90
9875;DHT22;4976;46.786;7.632;2023-06-26T07:40:58;25.20;99.90
9875;DHT22;4976;46.786;7.632;2023-06-26T07:43:25;25.30;99.90
9875;DHT22;4976;46.786;7.632;2023-06-26T07:45:53;25.60;99.90
9875;DHT22;4976;46.786;7.632;2023-06-26T07:48:24;25.80;99.90
9875;DHT22;4976;46.786;7.632;2023-06-26T07:50:51;25.90;99.90
9875;DHT22;4976;46.786;7.632;2023-06-26T07:53:18;26.00;99.90
9875;DHT22;4976;46.786;7.632;2023-06-26T07:55:45;25.90;99.90
9875;DHT22;4976;46.786;7.632;2023-06-26T07:58:12;25.70;99.90
9875;DHT22;4976;46.786;7.632;2023-06-26T08:00:40;25.90;99.90
9875;DHT22;4976;46.786;7.632;2023-06-26T08:03:08;26.00;99.90
9875;DHT22;4976;46.786;7.632;2023-06-26T08:05:35;26.20;99.90
9875;DHT22;4976;46.786;7.632;2023-06-26T08:08:03;26.50;99.90
9875;DHT22;4976;46.786;7.632;2023-06-26T08:10:30;26.90;99.90
9875;DHT22;4976;46.786;7.632;2023-06-26T08:12:57;27.00;99.90
9875;DHT22;4976;46.786;7.632;2023-06-26T08:15:24;26.70;99.90
9875;DHT22;4976;46.786;7.632;2023-06-26T08:17:51;26.40;99.90
9875;DHT22;4976;46.786;7.632;2023-06-26T08:20:19;26.60;99.90
9875;DHT22;4976;46.786;7.632;2023-06-26T08:22:48;26.90;99.90
9875;DHT22;4976;46.786;7.632;2023-06-26T08:25:17;26.90;99.90
9875;DHT22;4976;46.786;7.632;2023-06-26T08:27:44;26.80;99.90
9875;DHT22;4976;46.786;7.632;2023-06-26T08:30:11;26.80;99.90
9875;DHT22;4976;46.786;7.632;2023-06-26T08:32:39;27.00;99.90
9875;DHT22;4976;46.786;7.632;2023-06-26T08:35:07;27.30;99.90
9875;DHT22;4976;46.786;7.632;2023-06-26T08:37:37;27.50;99.90
9875;DHT22;4976;46.786;7.632;2023-06-26T08:40:05;27.70;99.90
9875;DHT22;4976;46.786;7.632;2023-06-26T08:42:33;27.90;99.90
9875;DHT22;4976;46.786;7.632;2023-06-26T08:45:00;28.20;99.90
9875;DHT22;4976;46.786;7.632;2023-06-26T08:47:28;28.20;99.90
9875;DHT22;4976;46.786;7.632;2023-06-26T08:50:01;28.00;99.90
9875;DHT22;4976;46.786;7.632;2023-06-26T08:52:33;28.00;99.90
9875;DHT22;4976;46.786;7.632;2023-06-26T08:55:08;27.90;99.90
9875;DHT22;4976;46.786;7.632;2023-06-26T08:57:36;28.20;99.90
9875;DHT22;4976;46.786;7.632;2023-06-26T09:00:05;28.50;99.90
9875;DHT22;4976;46.786;7.632;2023-06-26T09:02:34;28.00;99.90
9875;DHT22;4976;46.786;7.632;2023-06-26T09:05:02;27.80;99.90
9875;DHT22;4976;46.786;7.632;2023-06-26T09:07:29;27.70;99.90
9875;DHT22;4976;46.786;7.632;2023-06-26T09:09:56;27.90;99.90
9875;DHT22;4976;46.786;7.632;2023-06-26T09:12:26;28.20;99.90
9875;DHT22;4976;46.786;7.632;2023-06-26T09:14:54;28.20;99.90
9875;DHT22;4976;46.786;7.632;2023-06-26T09:17:24;28.20;99.90
9875;DHT22;4976;46.786;7.632;2023-06-26T09:19:52;28.10;99.90
9875;DHT22;4976;46.786;7.632;2023-06-26T09:22:19;27.80;99.90
9875;DHT22;4976;46.786;7.632;2023-06-26T09:24:47;27.80;99.90
9875;DHT22;4976;46.786;7.632;2023-06-26T09:27:14;28.00;99.90
9875;DHT22;4976;46.786;7.632;2023-06-26T09:29:42;28.10;99.90
9875;DHT22;4976;46.786;7.632;2023-06-26T09:32:13;28.10;99.90
9875;DHT22;4976;46.786;7.632;2023-06-26T09:34:42;28.30;99.90
9875;DHT22;4976;46.786;7.632;2023-06-26T09:37:11;28.60;99.90
9875;DHT22;4976;46.786;7.632;2023-06-26T09:39:38;28.70;99.90
9875;DHT22;4976;46.786;7.632;2023-06-26T09:42:06;28.80;99.90
9875;DHT22;4976;46.786;7.632;2023-06-26T09:44:33;28.90;99.90
9875;DHT22;4976;46.786;7.632;2023-06-26T09:47:03;28.50;99.90
9875;DHT22;4976;46.786;7.632;2023-06-26T09:49:31;28.50;99.90
9875;DHT22;4976;46.786;7.632;2023-06-26T09:52:00;28.30;99.90
9875;DHT22;4976;46.786;7.632;2023-06-26T09:54:28;28.20;99.90
9875;DHT22;4976;46.786;7.632;2023-06-26T09:57:07;28.20;99.90
9875;DHT22;4976;46.786;7.632;2023-06-26T09:59:35;28.00;99.90
9875;DHT22;4976;46.786;7.632;2023-06-26T10:02:04;28.40;99.90
9875;DHT22;4976;46.786;7.632;2023-06-26T10:04:31;28.50;99.90
9875;DHT22;4976;46.786;7.632;2023-06-26T10:07:01;28.80;99.90
9875;DHT22;4976;46.786;7.632;2023-06-26T10:09:29;28.60;99.90
9875;DHT22;4976;46.786;7.632;2023-06-26T10:11:59;28.60;99.90
9875;DHT22;4976;46.786;7.632;2023-06-26T10:14:34;28.70;99.90
9875;DHT22;4976;46.786;7.632;2023-06-26T10:17:04;29.00;99.90
9875;DHT22;4976;46.786;7.632;2023-06-26T10:19:33;29.30;99.90
9875;DHT22;4976;46.786;7.632;2023-06-26T10:22:02;29.00;99.90
9875;DHT22;4976;46.786;7.632;2023-06-26T10:24:33;29.30;99.90
9875;DHT22;4976;46.786;7.632;2023-06-26T10:27:05;29.70;99.90
9875;DHT22;4976;46.786;7.632;2023-06-26T10:29:37;30.00;99.90
9875;DHT22;4976;46.786;7.632;2023-06-26T10:32:07;30.00;99.90
9875;DHT22;4976;46.786;7.632;2023-06-26T10:34:35;29.60;99.90
9875;DHT22;4976;46.786;7.632;2023-06-26T10:37:05;29.30;99.90
9875;DHT22;4976;46.786;7.632;2023-06-26T10:39:46;28.90;99.90
9875;DHT22;4976;46.786;7.632;2023-06-26T10:42:14;29.00;99.90
9875;DHT22;4976;46.786;7.632;2023-06-26T10:44:42;29.30;99.90
9875;DHT22;4976;46.786;7.632;2023-06-26T10:47:12;29.50;99.90
9875;DHT22;4976;46.786;7.632;2023-06-26T10:49:47;29.60;99.90
9875;DHT22;4976;46.786;7.632;2023-06-26T10:52:14;30.00;99.90
9875;DHT22;4976;46.786;7.632;2023-06-26T10:54:41;30.50;99.90
9875;DHT22;4976;46.786;7.632;2023-06-26T10:57:08;30.50;99.90
9875;DHT22;4976;46.786;7.632;2023-06-26T10:59:39;29.80;99.90
9875;DHT22;4976;46.786;7.632;2023-06-26T11:02:06;30.00;99.90
9875;DHT22;4976;46.786;7.632;2023-06-26T11:04:39;30.40;99.90
9875;DHT22;4976;46.786;7.632;2023-06-26T11:07:18;30.40;99.90
9875;DHT22;4976;46.786;7.632;2023-06-26T11:09:56;31.00;99.90
9875;DHT22;4976;46.786;7.632;2023-06-26T11:12:46;31.20;99.90
9875;DHT22;4976;46.786;7.632;2023-06-26T11:15:21;31.50;99.90
9875;DHT22;4976;46.786;7.632;2023-06-26T11:18:06;31.40;99.90
9875;DHT22;4976;46.786;7.632;2023-06-26T11:20:34;31.20;99.90
9875;DHT22;4976;46.786;7.632;2023-06-26T11:23:04;31.00;99.90
9875;DHT22;4976;46.786;7.632;2023-06-26T11:25:34;31.10;99.90
9875;DHT22;4976;46.786;7.632;2023-06-26T11:28:03;31.60;99.90
9875;DHT22;4976;46.786;7.632;2023-06-26T11:30:31;31.50;99.90
9875;DHT22;4976;46.786;7.632;2023-06-26T11:33:03;31.60;99.90
9875;DHT22;4976;46.786;7.632;2023-06-26T11:35:30;31.10;99.90
9875;DHT22;4976;46.786;7.632;2023-06-26T11:38:00;30.50;99.90
9875;DHT22;4976;46.786;7.632;2023-06-26T11:40:31;30.00;99.90
9875;DHT22;4976;46.786;7.632;2023-06-26T11:42:58;29.80;99.90
9875;DHT22;4976;46.786;7.632;2023-06-26T11:45:27;29.70;99.90
9875;DHT22;4976;46.786;7.632;2023-06-26T11:47:55;29.80;99.90
9875;DHT22;4976;46.786;7.632;2023-06-26T11:50:23;29.60;99.90
9875;DHT22;4976;46.786;7.632;2023-06-26T11:52:53;29.70;99.90
9875;DHT22;4976;46.786;7.632;2023-06-26T11:55:23;29.90;99.90
9875;DHT22;4976;46.786;7.632;2023-06-26T11:57:52;29.70;99.90
9875;DHT22;4976;46.786;7.632;2023-06-26T12:00:20;29.80;99.90
9875;DHT22;4976;46.786;7.632;2023-06-26T12:02:47;29.70;99.90
9875;DHT22;4976;46.786;7.632;2023-06-26T12:05:15;29.50;99.90
9875;DHT22;4976;46.786;7.632;2023-06-26T12:07:44;29.30;99.90
9875;DHT22;4976;46.786;7.632;2023-06-26T12:10:13;29.10;99.90
9875;DHT22;4976;46.786;7.632;2023-06-26T12:12:43;29.30;99.90
9875;DHT22;4976;46.786;7.632;2023-06-26T12:15:13;29.30;99.90
9875;DHT22;4976;46.786;7.632;2023-06-26T12:17:41;29.70;99.90
9875;DHT22;4976;46.786;7.632;2023-06-26T12:20:17;30.40;99.90
9875;DHT22;4976;46.786;7.632;2023-06-26T12:22:46;30.90;99.90
9875;DHT22;4976;46.786;7.632;2023-06-26T12:25:13;31.30;99.90
9875;DHT22;4976;46.786;7.632;2023-06-26T12:27:44;30.80;99.90
9875;DHT22;4976;46.786;7.632;2023-06-26T12:30:12;30.80;99.90
9875;DHT22;4976;46.786;7.632;2023-06-26T12:32:39;30.90;99.90
9875;DHT22;4976;46.786;7.632;2023-06-26T12:35:06;31.20;99.90
9875;DHT22;4976;46.786;7.632;2023-06-26T12:37:37;30.30;99.90
9875;DHT22;4976;46.786;7.632;2023-06-26T12:40:16;30.30;99.90
9875;DHT22;4976;46.786;7.632;2023-06-26T12:42:45;30.50;99.90
9875;DHT22;4976;46.786;7.632;2023-06-26T12:45:13;30.60;99.90
9875;DHT22;4976;46.786;7.632;2023-06-26T12:47:41;30.40;99.90
9875;DHT22;4976;46.786;7.632;2023-06-26T12:50:08;30.50;99.90
9875;DHT22;4976;46.786;7.632;2023-06-26T12:52:35;30.70;99.90
9875;DHT22;4976;46.786;7.632;2023-06-26T12:55:02;30.80;99.90
9875;DHT22;4976;46.786;7.632;2023-06-26T12:57:31;31.10;99.90
9875;DHT22;4976;46.786;7.632;2023-06-26T12:59:59;30.70;99.90
9875;DHT22;4976;46.786;7.632;2023-06-26T13:02:27;30.60;99.90
9875;DHT22;4976;46.786;7.632;2023-06-26T13:04:53;30.40;99.90
9875;DHT22;4976;46.786;7.632;2023-06-26T13:07:21;30.00;99.90
9875;DHT22;4976;46.786;7.632;2023-06-26T13:09:50;29.80;99.90
9875;DHT22;4976;46.786;7.632;2023-06-26T13:12:17;30.00;99.90
9875;DHT22;4976;46.786;7.632;2023-06-26T13:14:44;30.60;99.90
9875;DHT22;4976;46.786;7.632;2023-06-26T13:17:12;30.80;99.90
9875;DHT22;4976;46.786;7.632;2023-06-26T13:19:39;31.70;99.90
9875;DHT22;4976;46.786;7.632;2023-06-26T13:22:06;31.20;99.90
9875;DHT22;4976;46.786;7.632;2023-06-26T13:24:33;31.30;99.90
9875;DHT22;4976;46.786;7.632;2023-06-26T13:27:00;31.20;99.90
9875;DHT22;4976;46.786;7.632;2023-06-26T13:29:27;30.90;99.90
9875;DHT22;4976;46.786;7.632;2023-06-26T13:31:54;30.20;99.90
9875;DHT22;4976;46.786;7.632;2023-06-26T13:34:24;29.50;99.90
9875;DHT22;4976;46.786;7.632;2023-06-26T13:36:53;29.40;99.90
9875;DHT22;4976;46.786;7.632;2023-06-26T13:39:20;29.60;99.90
9875;DHT22;4976;46.786;7.632;2023-06-26T13:41:47;29.40;99.90
9875;DHT22;4976;46.786;7.632;2023-06-26T13:44:14;29.40;99.90
9875;DHT22;4976;46.786;7.632;2023-06-26T13:46:41;29.80;99.90
9875;DHT22;4976;46.786;7.632;2023-06-26T13:49:08;29.80;99.90
9875;DHT22;4976;46.786;7.632;2023-06-26T13:51:36;29.60;99.90
9875;DHT22;4976;46.786;7.632;2023-06-26T13:54:03;29.60;99.90
9875;DHT22;4976;46.786;7.632;2023-06-26T13:56:30;29.60;99.90
9875;DHT22;4976;46.786;7.632;2023-06-26T13:58:57;30.00;99.90
9875;DHT22;4976;46.786;7.632;2023-06-26T14:01:25;30.40;99.90
9875;DHT22;4976;46.786;7.632;2023-06-26T14:03:52;30.90;99.90
9875;DHT22;4976;46.786;7.632;2023-06-26T14:06:19;31.30;99.90
9875;DHT22;4976;46.786;7.632;2023-06-26T14:08:47;31.30;99.90
9875;DHT22;4976;46.786;7.632;2023-06-26T14:11:14;31.70;99.90
9875;DHT22;4976;46.786;7.632;2023-06-26T14:13:42;31.40;99.90
9875;DHT22;4976;46.786;7.632;2023-06-26T14:16:09;31.30;99.90
9875;DHT22;4976;46.786;7.632;2023-06-26T14:18:37;30.70;99.90
9875;DHT22;4976;46.786;7.632;2023-06-26T14:21:05;30.80;99.90
9875;DHT22;4976;46.786;7.632;2023-06-26T14:23:32;30.70;99.90
9875;DHT22;4976;46.786;7.632;2023-06-26T14:26:01;30.60;99.90
9875;DHT22;4976;46.786;7.632;2023-06-26T14:28:28;30.20;99.90
9875;DHT22;4976;46.786;7.632;2023-06-26T14:30:55;30.10;99.90
9875;DHT22;4976;46.786;7.632;2023-06-26T14:33:21;30.40;99.90
9875;DHT22;4976;46.786;7.632;2023-06-26T14:35:48;30.60;99.90
9875;DHT22;4976;46.786;7.632;2023-06-26T14:38:15;30.20;99.90
9875;DHT22;4976;46.786;7.632;2023-06-26T14:40:42;30.40;99.90
9875;DHT22;4976;46.786;7.632;2023-06-26T14:43:10;30.60;99.90
9875;DHT22;4976;46.786;7.632;2023-06-26T14:45:37;29.80;99.90
9875;DHT22;4976;46.786;7.632;2023-06-26T14:48:04;29.70;99.90
9875;DHT22;4976;46.786;7.632;2023-06-26T14:50:31;29.90;99.90
9875;DHT22;4976;46.786;7.632;2023-06-26T14:52:57;30.00;99.90
9875;DHT22;4976;46.786;7.632;2023-06-26T14:55:25;29.70;99.90
9875;DHT22;4976;46.786;7.632;2023-06-26T14:57:52;30.10;99.90
9875;DHT22;4976;46.786;7.632;2023-06-26T15:00:21;30.60;99.90
9875;DHT22;4976;46.786;7.632;2023-06-26T15:02:48;30.60;99.90
9875;DHT22;4976;46.786;7.632;2023-06-26T15:05:18;30.90;99.90
9875;DHT22;4976;46.786;7.632;2023-06-26T15:07:45;30.90;99.90
9875;DHT22;4976;46.786;7.632;2023-06-26T15:10:12;31.00;99.90
9875;DHT22;4976;46.786;7.632;2023-06-26T15:12:38;31.00;99.90
9875;DHT22;4976;46.786;7.632;2023-06-26T15:15:06;31.50;99.90
9875;DHT22;4976;46.786;7.632;2023-06-26T15:17:34;31.70;99.90
9875;DHT22;4976;46.786;7.632;2023-06-26T15:20:01;31.70;99.90
9875;DHT22;4976;46.786;7.632;2023-06-26T15:22:28;31.30;99.90
9875;DHT22;4976;46.786;7.632;2023-06-26T15:24:54;31.30;99.90
9875;DHT22;4976;46.786;7.632;2023-06-26T15:27:21;31.50;99.90
9875;DHT22;4976;46.786;7.632;2023-06-26T15:29:48;31.30;99.90
9875;DHT22;4976;46.786;7.632;2023-06-26T15:32:15;31.70;99.90
9875;DHT22;4976;46.786;7.632;2023-06-26T15:34:43;31.10;99.90
9875;DHT22;4976;46.786;7.632;2023-06-26T15:37:10;30.80;99.90
9875;DHT22;4976;46.786;7.632;2023-06-26T15:39:36;30.60;99.90
9875;DHT22;4976;46.786;7.632;2023-06-26T15:42:05;30.60;99.90
9875;DHT22;4976;46.786;7.632;2023-06-26T15:44:32;30.80;99.90
9875;DHT22;4976;46.786;7.632;2023-06-26T15:46:58;30.70;99.90
9875;DHT22;4976;46.786;7.632;2023-06-26T15:49:25;30.40;99.90
9875;DHT22;4976;46.786;7.632;2023-06-26T15:51:53;29.60;99.90
9875;DHT22;4976;46.786;7.632;2023-06-26T15:54:20;29.60;99.90
9875;DHT22;4976;46.786;7.632;2023-06-26T15:56:47;29.80;99.90
9875;DHT22;4976;46.786;7.632;2023-06-26T15:59:14;30.00;99.90
9875;DHT22;4976;46.786;7.632;2023-06-26T16:01:44;30.40;99.90
9875;DHT22;4976;46.786;7.632;2023-06-26T16:04:11;30.70;99.90
9875;DHT22;4976;46.786;7.632;2023-06-26T16:06:37;30.80;99.90
9875;DHT22;4976;46.786;7.632;2023-06-26T16:09:06;31.10;99.90
9875;DHT22;4976;46.786;7.632;2023-06-26T16:11:33;31.70;99.90
9875;DHT22;4976;46.786;7.632;2023-06-26T16:14:00;31.90;99.90
9875;DHT22;4976;46.786;7.632;2023-06-26T16:16:27;31.50;99.90
9875;DHT22;4976;46.786;7.632;2023-06-26T16:18:53;31.40;99.90
9875;DHT22;4976;46.786;7.632;2023-06-26T16:21:20;31.60;99.90
9875;DHT22;4976;46.786;7.632;2023-06-26T16:23:47;31.70;99.90
9875;DHT22;4976;46.786;7.632;2023-06-26T16:26:15;31.50;99.90
9875;DHT22;4976;46.786;7.632;2023-06-26T16:28:42;31.20;99.90
9875;DHT22;4976;46.786;7.632;2023-06-26T16:31:09;31.40;99.90
9875;DHT22;4976;46.786;7.632;2023-06-26T16:33:36;30.90;99.90
9875;DHT22;4976;46.786;7.632;2023-06-26T16:36:03;30.60;99.90
9875;DHT22;4976;46.786;7.632;2023-06-26T16:38:30;31.00;99.90
9875;DHT22;4976;46.786;7.632;2023-06-26T16:40:57;31.00;99.90
9875;DHT22;4976;46.786;7.632;2023-06-26T16:43:25;31.80;99.90
9875;DHT22;4976;46.786;7.632;2023-06-26T16:45:52;33.60;99.90
9875;DHT22;4976;46.786;7.632;2023-06-26T16:48:18;35.00;99.90
9875;DHT22;4976;46.786;7.632;2023-06-26T16:50:45;34.10;99.90
9875;DHT22;4976;46.786;7.632;2023-06-26T16:53:12;33.70;99.90
9875;DHT22;4976;46.786;7.632;2023-06-26T16:55:39;32.40;99.90
9875;DHT22;4976;46.786;7.632;2023-06-26T16:58:06;31.70;99.90
9875;DHT22;4976;46.786;7.632;2023-06-26T17:00:34;31.60;99.90
9875;DHT22;4976;46.786;7.632;2023-06-26T17:03:03;32.00;99.90
9875;DHT22;4976;46.786;7.632;2023-06-26T17:05:30;31.80;99.90
9875;DHT22;4976;46.786;7.632;2023-06-26T17:07:57;31.20;99.90
9875;DHT22;4976;46.786;7.632;2023-06-26T17:10:24;31.20;99.90
9875;DHT22;4976;46.786;7.632;2023-06-26T17:12:50;30.10;99.90
9875;DHT22;4976;46.786;7.632;2023-06-26T17:15:17;29.90;99.90
9875;DHT22;4976;46.786;7.632;2023-06-26T17:17:45;29.90;99.90
9875;DHT22;4976;46.786;7.632;2023-06-26T17:20:12;30.50;99.90
9875;DHT22;4976;46.786;7.632;2023-06-26T17:22:39;31.50;99.90
9875;DHT22;4976;46.786;7.632;2023-06-26T17:25:08;33.40;99.90
9875;DHT22;4976;46.786;7.632;2023-06-26T17:27:37;32.60;99.90
9875;DHT22;4976;46.786;7.632;2023-06-26T17:30:04;31.80;99.90
9875;DHT22;4976;46.786;7.632;2023-06-26T17:32:31;30.80;99.90
9875;DHT22;4976;46.786;7.632;2023-06-26T17:34:59;30.20;99.90
9875;DHT22;4976;46.786;7.632;2023-06-26T17:37:27;30.00;99.90
9875;DHT22;4976;46.786;7.632;2023-06-26T17:39:54;29.70;99.90
9875;DHT22;4976;46.786;7.632;2023-06-26T17:42:21;30.60;99.90
9875;DHT22;4976;46.786;7.632;2023-06-26T17:44:48;31.90;99.90
9875;DHT22;4976;46.786;7.632;2023-06-26T17:47:15;33.10;99.90
9875;DHT22;4976;46.786;7.632;2023-06-26T17:49:41;34.20;99.90
9875;DHT22;4976;46.786;7.632;2023-06-26T17:52:10;34.40;99.90
9875;DHT22;4976;46.786;7.632;2023-06-26T17:54:37;34.30;99.90
9875;DHT22;4976;46.786;7.632;2023-06-26T17:57:04;32.60;99.90
9875;DHT22;4976;46.786;7.632;2023-06-26T17:59:30;31.00;99.90
9875;DHT22;4976;46.786;7.632;2023-06-26T18:01:57;30.10;99.90
9875;DHT22;4976;46.786;7.632;2023-06-26T18:04:25;29.90;99.90
9875;DHT22;4976;46.786;7.632;2023-06-26T18:06:52;29.60;99.90
9875;DHT22;4976;46.786;7.632;2023-06-26T18:09:20;29.00;99.90
9875;DHT22;4976;46.786;7.632;2023-06-26T18:11:47;28.50;99.90
9875;DHT22;4976;46.786;7.632;2023-06-26T18:14:14;27.90;99.90
9875;DHT22;4976;46.786;7.632;2023-06-26T18:16:40;27.70;99.90
9875;DHT22;4976;46.786;7.632;2023-06-26T18:19:07;27.60;99.90
9875;DHT22;4976;46.786;7.632;2023-06-26T18:21:36;27.80;99.90
9875;DHT22;4976;46.786;7.632;2023-06-26T18:24:04;27.70;99.90
9875;DHT22;4976;46.786;7.632;2023-06-26T18:26:32;27.60;99.90
9875;DHT22;4976;46.786;7.632;2023-06-26T18:28:59;27.40;99.90
9875;DHT22;4976;46.786;7.632;2023-06-26T18:31:25;27.40;99.90
9875;DHT22;4976;46.786;7.632;2023-06-26T18:33:52;27.40;99.90
9875;DHT22;4976;46.786;7.632;2023-06-26T18:36:19;27.50;99.90
9875;DHT22;4976;46.786;7.632;2023-06-26T18:38:46;27.30;99.90
9875;DHT22;4976;46.786;7.632;2023-06-26T18:41:12;27.30;99.90
9875;DHT22;4976;46.786;7.632;2023-06-26T18:43:41;27.30;99.90
9875;DHT22;4976;46.786;7.632;2023-06-26T18:46:10;27.20;99.90
9875;DHT22;4976;46.786;7.632;2023-06-26T18:48:37;27.20;99.90
9875;DHT22;4976;46.786;7.632;2023-06-26T18:51:04;27.30;99.90
9875;DHT22;4976;46.786;7.632;2023-06-26T18:53:31;27.10;99.90
9875;DHT22;4976;46.786;7.632;2023-06-26T18:55:57;27.10;99.90
9875;DHT22;4976;46.786;7.632;2023-06-26T18:58:24;27.00;99.90
9875;DHT22;4976;46.786;7.632;2023-06-26T19:00:52;27.10;99.90
9875;DHT22;4976;46.786;7.632;2023-06-26T19:03:19;27.00;99.90
9875;DHT22;4976;46.786;7.632;2023-06-26T19:05:46;26.60;99.90
9875;DHT22;4976;46.786;7.632;2023-06-26T19:08:13;26.30;99.90
9875;DHT22;4976;46.786;7.632;2023-06-26T19:10:39;26.20;99.90
9875;DHT22;4976;46.786;7.632;2023-06-26T19:13:06;26.00;99.90
9875;DHT22;4976;46.786;7.632;2023-06-26T19:15:33;25.70;99.90
9875;DHT22;4976;46.786;7.632;2023-06-26T19:18:01;25.60;99.90
9875;DHT22;4976;46.786;7.632;2023-06-26T19:20:28;25.40;99.90
9875;DHT22;4976;46.786;7.632;2023-06-26T19:22:55;25.40;99.90
9875;DHT22;4976;46.786;7.632;2023-06-26T19:25:21;25.40;99.90
9875;DHT22;4976;46.786;7.632;2023-06-26T19:27:48;25.30;99.90
9875;DHT22;4976;46.786;7.632;2023-06-26T19:30:15;25.40;99.90
9875;DHT22;4976;46.786;7.632;2023-06-26T19:32:42;25.30;99.90
9875;DHT22;4976;46.786;7.632;2023-06-26T19:35:11;25.10;99.90
9875;DHT22;4976;46.786;7.632;2023-06-26T19:37:38;25.00;99.90
9875;DHT22;4976;46.786;7.632;2023-06-26T19:40:06;24.90;99.90
9875;DHT22;4976;46.786;7.632;2023-06-26T19:42:34;24.80;99.90
9875;DHT22;4976;46.786;7.632;2023-06-26T19:45:01;24.70;99.90
9875;DHT22;4976;46.786;7.632;2023-06-26T19:47:28;24.60;99.90
9875;DHT22;4976;46.786;7.632;2023-06-26T19:49:57;24.50;99.90
9875;DHT22;4976;46.786;7.632;2023-06-26T19:52:25;24.30;99.90
9875;DHT22;4976;46.786;7.632;2023-06-26T19:54:52;24.30;99.90
9875;DHT22;4976;46.786;7.632;2023-06-26T19:57:19;24.30;99.90
9875;DHT22;4976;46.786;7.632;2023-06-26T19:59:46;24.40;99.90
9875;DHT22;4976;46.786;7.632;2023-06-26T20:02:13;24.40;99.90
9875;DHT22;4976;46.786;7.632;2023-06-26T20:04:41;24.30;99.90
9875;DHT22;4976;46.786;7.632;2023-06-26T20:07:08;24.20;99.90
9875;DHT22;4976;46.786;7.632;2023-06-26T20:09:38;24.00;99.90